createdAt,value
2018-07-11T00:00:21.725Z,13.62
2018-07-11T00:02:50.329Z,13.58
2018-07-11T00:05:18.752Z,13.52
2018-07-11T00:07:47.247Z,13.45
2018-07-11T00:10:15.677Z,13.35
2018-07-11T00:12:44.105Z,13.30
2018-07-11T00:15:12.549Z,13.31
2018-07-11T00:17:40.995Z,13.19
2018-07-11T00:20:09.509Z,13.21
2018-07-11T00:22:38.054Z,13.20
2018-07-11T00:25:06.549Z,13.14
2018-07-11T00:27:35.061Z,13.09
2018-07-11T00:30:03.557Z,13.01
2018-07-11T00:32:32.096Z,12.99
2018-07-11T00:35:00.599Z,12.90
2018-07-11T00:37:29.231Z,12.82
2018-07-11T00:39:57.684Z,12.73
2018-07-11T00:42:26.662Z,12.69
2018-07-11T00:44:55.302Z,12.61
2018-07-11T00:47:23.861Z,12.67
2018-07-11T00:49:52.424Z,12.61
2018-07-11T00:52:20.941Z,12.53
2018-07-11T00:54:49.435Z,12.55
2018-07-11T00:57:18.132Z,12.53
2018-07-11T00:59:46.601Z,12.41
2018-07-11T01:02:15.417Z,12.42
2018-07-11T01:04:43.858Z,12.33
2018-07-11T01:07:12.353Z,12.28
2018-07-11T01:09:44.871Z,12.20
2018-07-11T01:12:13.354Z,12.19
2018-07-11T01:14:41.805Z,12.16
2018-07-11T01:17:14.393Z,12.12
2018-07-11T01:19:43.589Z,12.13
2018-07-11T01:22:12.054Z,12.03
2018-07-11T01:24:40.458Z,11.97
2018-07-11T01:27:08.901Z,12.02
2018-07-11T01:29:37.355Z,12.00
2018-07-11T01:32:05.777Z,11.92
2018-07-11T01:34:34.189Z,11.85
2018-07-11T01:37:02.714Z,11.90
2018-07-11T01:39:31.098Z,11.84
2018-07-11T01:41:59.527Z,11.84
2018-07-11T01:44:27.951Z,11.81
2018-07-11T01:46:56.386Z,11.87
2018-07-11T01:49:24.762Z,11.90
2018-07-11T01:52:04.516Z,11.88
2018-07-11T01:54:32.967Z,11.97
2018-07-11T01:57:01.415Z,12.02
2018-07-11T01:59:33.683Z,12.09
2018-07-11T02:02:02.700Z,12.09
2018-07-11T02:04:32.003Z,12.17
2018-07-11T02:07:00.780Z,12.17
2018-07-11T02:09:29.619Z,12.07
2018-07-11T02:11:58.178Z,12.15
2018-07-11T02:14:26.697Z,11.98
2018-07-11T02:16:55.404Z,11.85
2018-07-11T02:19:24.019Z,11.82
2018-07-11T02:21:53.057Z,12.05
2018-07-11T02:24:23.235Z,12.02
2018-07-11T02:26:51.965Z,12.21
2018-07-11T02:29:20.520Z,12.16
2018-07-11T02:31:48.995Z,12.21
2018-07-11T02:34:21.046Z,12.31
2018-07-11T02:36:49.465Z,12.31
2018-07-11T02:39:17.979Z,12.25
2018-07-11T02:41:46.372Z,12.18
2018-07-11T02:44:14.869Z,12.25
2018-07-11T02:46:48.606Z,12.24
2018-07-11T02:49:17.142Z,12.36
2018-07-11T02:51:45.593Z,12.29
2018-07-11T02:54:14.046Z,12.24
2018-07-11T02:56:42.448Z,12.26
2018-07-11T02:59:10.857Z,12.24
2018-07-11T03:01:39.284Z,12.18
2018-07-11T03:04:07.705Z,12.16
2018-07-11T03:06:36.176Z,12.15
2018-07-11T03:09:04.570Z,12.09
2018-07-11T03:11:32.989Z,12.07
2018-07-11T03:14:01.526Z,12.19
2018-07-11T03:16:29.957Z,12.17
2018-07-11T03:18:58.575Z,12.03
2018-07-11T03:21:26.989Z,11.97
2018-07-11T03:23:55.421Z,11.92
2018-07-11T03:26:23.865Z,11.86
2018-07-11T03:28:52.281Z,11.80
2018-07-11T03:31:20.722Z,11.81
2018-07-11T03:33:49.246Z,11.84
2018-07-11T03:36:17.654Z,11.81
2018-07-11T03:38:46.099Z,11.83
2018-07-11T03:41:14.554Z,11.82
2018-07-11T03:43:42.977Z,11.80
2018-07-11T03:46:11.396Z,11.79
2018-07-11T03:48:39.875Z,11.82
2018-07-11T03:51:08.306Z,11.80
2018-07-11T03:53:36.837Z,11.75
2018-07-11T03:56:05.296Z,11.79
2018-07-11T03:58:33.836Z,11.75
2018-07-11T04:01:02.298Z,11.76
2018-07-11T04:03:30.755Z,11.63
2018-07-11T04:05:59.187Z,11.61
2018-07-11T04:08:27.662Z,11.55
2018-07-11T04:10:56.084Z,11.57
2018-07-11T04:13:24.597Z,11.49
2018-07-11T04:15:53.037Z,11.53
2018-07-11T04:18:25.624Z,11.46
2018-07-11T04:20:54.197Z,11.49
2018-07-11T04:23:22.715Z,11.51
2018-07-11T04:25:51.285Z,11.44
2018-07-11T04:28:19.817Z,11.51
2018-07-11T04:30:48.350Z,11.58
2018-07-11T04:33:16.918Z,11.69
2018-07-11T04:35:45.437Z,11.79
2018-07-11T04:38:13.926Z,11.96
2018-07-11T04:40:42.461Z,12.06
2018-07-11T04:43:11.029Z,12.05
2018-07-11T04:45:39.830Z,12.17
2018-07-11T04:48:08.884Z,12.20
2018-07-11T04:50:37.692Z,12.22
2018-07-11T04:53:09.900Z,12.32
2018-07-11T04:55:38.922Z,12.28
2018-07-11T04:58:07.345Z,12.09
2018-07-11T05:00:35.810Z,12.29
2018-07-11T05:03:04.268Z,12.51
2018-07-11T05:05:32.733Z,12.78
2018-07-11T05:08:01.244Z,12.57
2018-07-11T05:10:29.872Z,12.55
2018-07-11T05:12:58.293Z,12.43
2018-07-11T05:15:26.788Z,12.53
2018-07-11T05:17:56.161Z,12.68
2018-07-11T05:20:24.617Z,12.83
2018-07-11T05:22:53.042Z,12.99
2018-07-11T05:25:21.513Z,12.99
2018-07-11T05:27:49.938Z,12.85
2018-07-11T05:30:18.379Z,12.85
2018-07-11T05:32:46.809Z,12.80
2018-07-11T05:35:15.393Z,12.82
2018-07-11T05:37:43.930Z,12.97
2018-07-11T05:40:12.432Z,12.64
2018-07-11T05:42:40.882Z,13.15
2018-07-11T05:45:09.374Z,13.20
2018-07-11T05:47:37.816Z,13.33
2018-07-11T05:50:06.446Z,13.44
2018-07-11T05:52:34.940Z,13.22
2018-07-11T05:55:03.525Z,13.25
2018-07-11T05:57:31.985Z,13.35
2018-07-11T06:00:00.511Z,13.38
2018-07-11T06:02:28.981Z,13.32
2018-07-11T06:04:57.470Z,13.57
2018-07-11T06:07:25.944Z,13.38
2018-07-11T06:09:54.465Z,13.66
2018-07-11T06:12:22.892Z,13.70
2018-07-11T06:14:51.366Z,13.89
2018-07-11T06:17:20.125Z,13.97
2018-07-11T06:19:48.641Z,13.97
2018-07-11T06:22:17.103Z,14.09
2018-07-11T06:24:45.581Z,14.11
2018-07-11T06:27:14.036Z,14.27
2018-07-11T06:29:42.520Z,14.63
2018-07-11T06:32:10.961Z,14.77
2018-07-11T06:34:39.404Z,14.77
2018-07-11T06:37:07.833Z,14.55
2018-07-11T06:39:36.306Z,14.31
2018-07-11T06:42:04.772Z,14.30
2018-07-11T06:44:33.236Z,14.72
2018-07-11T06:47:16.172Z,14.90
2018-07-11T06:49:46.498Z,14.71
2018-07-11T06:52:15.490Z,15.08
2018-07-11T06:54:43.925Z,15.09
2018-07-11T06:57:12.398Z,14.96
2018-07-11T06:59:40.844Z,15.50
2018-07-11T07:02:09.266Z,15.45
2018-07-11T07:04:37.681Z,15.56
2018-07-11T07:07:06.073Z,15.60
2018-07-11T07:09:34.494Z,15.90
2018-07-11T07:12:02.951Z,15.81
2018-07-11T07:14:31.362Z,15.83
2018-07-11T07:16:59.762Z,16.11
2018-07-11T07:19:28.188Z,16.17
2018-07-11T07:21:56.738Z,16.25
2018-07-11T07:24:25.222Z,16.14
2018-07-11T07:26:53.643Z,15.54
2018-07-11T07:29:22.494Z,15.88
2018-07-11T07:31:50.929Z,16.00
2018-07-11T07:34:19.381Z,16.19
2018-07-11T07:36:47.810Z,15.96
2018-07-11T07:39:16.255Z,16.29
2018-07-11T07:41:44.656Z,15.87
2018-07-11T07:44:13.441Z,15.88
2018-07-11T07:46:46.081Z,16.63
2018-07-11T07:49:14.670Z,15.92
2018-07-11T07:51:43.162Z,16.35
2018-07-11T07:54:11.664Z,15.93
2018-07-11T07:56:40.187Z,16.59
2018-07-11T07:59:08.663Z,16.53
2018-07-11T08:01:37.181Z,17.45
2018-07-11T08:04:05.693Z,18.03
2018-07-11T08:06:34.146Z,18.00
2018-07-11T08:09:02.658Z,19.01
2018-07-11T08:11:31.106Z,19.50
2018-07-11T08:13:59.520Z,19.57
2018-07-11T08:16:28.052Z,17.99
2018-07-11T08:18:56.477Z,17.33
2018-07-11T08:21:24.979Z,18.23
2018-07-11T08:24:04.594Z,18.25
2018-07-11T08:26:44.373Z,17.38
2018-07-11T08:31:56.534Z,17.13
2018-07-11T08:35:04.092Z,18.14
2018-07-11T08:37:48.930Z,17.15
2018-07-11T08:41:04.634Z,17.64
2018-07-11T08:43:42.802Z,17.84
2018-07-11T08:46:22.467Z,17.47
2018-07-11T08:53:12.118Z,18.05
2018-07-11T08:55:51.717Z,19.03
2018-07-11T08:58:45.270Z,19.40
2018-07-11T09:01:55.987Z,18.64
2018-07-11T09:06:44.755Z,19.17
2018-07-11T09:11:29.590Z,18.67
2018-07-11T09:15:05.753Z,19.82
2018-07-11T09:17:50.988Z,19.51
2018-07-11T09:20:37.843Z,18.99
2018-07-11T09:23:17.698Z,18.54
2018-07-11T09:25:46.229Z,18.72
2018-07-11T09:28:14.706Z,18.92
2018-07-11T09:30:43.189Z,18.95
2018-07-11T09:33:11.714Z,18.97
2018-07-11T09:35:40.173Z,18.64
2018-07-11T09:38:08.948Z,19.08
2018-07-11T09:40:39.728Z,19.44
2018-07-11T09:43:08.249Z,20.37
2018-07-11T09:45:36.786Z,20.84
2018-07-11T09:48:05.397Z,19.79
2018-07-11T09:50:33.938Z,19.75
2018-07-11T09:53:02.378Z,20.00
2018-07-11T09:55:30.848Z,20.36
2018-07-11T09:57:59.339Z,21.06
2018-07-11T10:00:33.151Z,20.16
2018-07-11T10:03:01.651Z,20.43
2018-07-11T10:05:31.165Z,21.07
2018-07-11T10:07:59.606Z,20.24
2018-07-11T10:10:28.047Z,20.36
2018-07-11T10:12:56.488Z,20.90
2018-07-11T10:15:24.926Z,20.02
2018-07-11T10:17:53.447Z,20.05
2018-07-11T10:20:21.864Z,20.18
2018-07-11T10:22:50.373Z,20.38
2018-07-11T10:25:18.838Z,20.19
2018-07-11T10:27:47.870Z,20.47
2018-07-11T10:30:16.293Z,20.79
2018-07-11T10:32:44.815Z,20.90
2018-07-11T10:35:13.505Z,20.76
2018-07-11T10:37:41.977Z,21.00
2018-07-11T10:40:10.383Z,21.08
2018-07-11T10:42:38.897Z,20.88
2018-07-11T10:45:07.323Z,20.45
2018-07-11T10:47:35.782Z,21.17
2018-07-11T10:50:04.245Z,21.79
2018-07-11T10:52:32.701Z,21.35
2018-07-11T10:55:01.136Z,21.32
2018-07-11T10:57:29.624Z,21.86
2018-07-11T10:59:58.065Z,21.76
2018-07-11T11:02:26.481Z,21.34
2018-07-11T11:04:55.007Z,21.25
2018-07-11T11:07:23.378Z,21.79
2018-07-11T11:09:51.821Z,22.11
2018-07-11T11:12:20.293Z,21.84
2018-07-11T11:14:48.768Z,22.34
2018-07-11T11:17:17.253Z,22.61
2018-07-11T11:19:45.716Z,21.82
2018-07-11T11:22:14.300Z,21.94
2018-07-11T11:24:42.738Z,23.44
2018-07-11T11:27:11.212Z,23.57
2018-07-11T11:29:39.728Z,23.14
2018-07-11T11:32:08.197Z,22.47
2018-07-11T11:34:36.637Z,22.48
2018-07-11T11:37:05.222Z,21.51
2018-07-11T11:39:33.678Z,21.79
2018-07-11T11:42:03.227Z,22.18
2018-07-11T11:44:31.625Z,22.30
2018-07-11T11:47:02.342Z,22.06
2018-07-11T11:49:31.560Z,21.32
2018-07-11T11:52:00.241Z,21.36
2018-07-11T11:54:29.050Z,21.80
2018-07-11T11:56:57.543Z,22.04
2018-07-11T11:59:26.086Z,22.39
2018-07-11T12:01:54.566Z,22.99
2018-07-11T12:04:23.016Z,22.81
2018-07-11T12:06:51.597Z,22.78
2018-07-11T12:09:20.108Z,23.68
2018-07-11T12:11:48.558Z,24.02
2018-07-11T12:14:17.625Z,22.41
2018-07-11T12:16:46.146Z,21.96
2018-07-11T12:19:14.898Z,22.48
2018-07-11T12:21:43.369Z,23.41
2018-07-11T12:24:11.854Z,23.77
2018-07-11T12:26:40.398Z,23.08
2018-07-11T12:29:08.806Z,22.97
2018-07-11T12:31:37.798Z,23.78
2018-07-11T12:34:06.311Z,23.45
2018-07-11T12:36:34.752Z,23.70
2018-07-11T12:39:03.295Z,22.55
2018-07-11T12:41:31.858Z,22.66
2018-07-11T12:44:00.505Z,22.36
2018-07-11T12:46:28.970Z,22.19
2018-07-11T12:49:02.187Z,22.15
2018-07-11T12:51:31.014Z,22.87
2018-07-11T12:53:59.502Z,23.20
2018-07-11T12:56:28.271Z,23.08
2018-07-11T12:58:57.493Z,24.11
2018-07-11T13:01:25.966Z,24.20
2018-07-11T13:03:56.364Z,24.33
2018-07-11T13:06:26.354Z,25.26
2018-07-11T13:08:54.802Z,25.41
2018-07-11T13:11:28.844Z,24.52
2018-07-11T13:13:57.274Z,24.80
2018-07-11T13:16:25.736Z,25.60
2018-07-11T13:18:54.181Z,25.35
2018-07-11T13:21:22.615Z,24.63
2018-07-11T13:23:51.109Z,26.13
2018-07-11T13:26:19.551Z,26.61
2018-07-11T13:28:48.065Z,26.83
2018-07-11T13:31:16.477Z,26.54
2018-07-11T13:33:44.969Z,25.71
2018-07-11T13:36:13.423Z,25.40
2018-07-11T13:38:41.844Z,24.98
2018-07-11T13:41:10.447Z,25.07
2018-07-11T13:43:38.909Z,24.03
2018-07-11T13:46:07.462Z,23.97
2018-07-11T13:48:35.942Z,23.60
2018-07-11T13:51:04.386Z,23.44
2018-07-11T13:53:32.836Z,23.25
2018-07-11T13:56:01.438Z,23.67
2018-07-11T13:58:30.065Z,23.50
2018-07-11T14:00:59.050Z,23.50
2018-07-11T14:03:27.511Z,23.60
2018-07-11T14:05:56.087Z,23.91
2018-07-11T14:08:24.589Z,23.92
2018-07-11T14:10:53.226Z,24.20
2018-07-11T14:13:21.732Z,23.93
2018-07-11T14:15:50.198Z,23.58
2018-07-11T14:18:18.653Z,23.38
2018-07-11T14:20:48.085Z,23.34
2018-07-11T14:23:26.524Z,23.18
2018-07-11T14:25:55.070Z,23.18
2018-07-11T14:28:23.549Z,23.12
2018-07-11T14:30:52.092Z,23.38
2018-07-11T14:33:20.776Z,23.32
2018-07-11T14:35:49.222Z,22.91
2018-07-11T14:38:17.737Z,22.76
2018-07-11T14:40:46.400Z,22.76
2018-07-11T14:43:14.849Z,22.49
2018-07-11T14:45:43.433Z,22.59
2018-07-11T14:48:16.401Z,22.47
2018-07-11T14:50:45.401Z,22.42
2018-07-11T14:53:14.040Z,22.33
2018-07-11T14:55:42.569Z,22.28
2018-07-11T14:58:11.144Z,22.23
2018-07-11T15:00:39.610Z,22.22
2018-07-11T15:03:08.053Z,22.29
2018-07-11T15:05:36.700Z,22.16
2018-07-11T15:08:05.510Z,22.14
2018-07-11T15:10:34.188Z,22.12
2018-07-11T15:13:02.741Z,22.08
2018-07-11T15:15:31.640Z,21.98
2018-07-11T15:18:00.549Z,22.08
2018-07-11T15:20:29.081Z,22.07
2018-07-11T15:22:57.619Z,21.98
2018-07-11T15:25:26.312Z,21.95
2018-07-11T15:27:54.840Z,21.96
2018-07-11T15:30:23.325Z,21.87
2018-07-11T15:32:51.794Z,21.98
2018-07-11T15:35:20.313Z,21.93
2018-07-11T15:37:48.794Z,21.80
2018-07-11T15:40:17.339Z,21.86
2018-07-11T15:42:46.121Z,21.82
2018-07-11T15:45:14.627Z,21.82
2018-07-11T15:47:44.512Z,21.13
2018-07-11T15:50:13.002Z,19.82
2018-07-11T15:52:41.896Z,19.21
2018-07-11T15:55:10.445Z,18.91
2018-07-11T15:57:49.860Z,18.63
2018-07-11T16:00:20.143Z,18.66
2018-07-11T16:02:49.679Z,18.64
2018-07-11T16:05:20.563Z,18.73
2018-07-11T16:07:51.062Z,18.78
2018-07-11T16:10:38.501Z,18.80
2018-07-11T16:13:07.361Z,18.61
2018-07-11T16:15:35.870Z,18.74
2018-07-11T16:18:05.977Z,18.73
2018-07-11T16:20:34.676Z,18.78
2018-07-11T16:23:03.631Z,18.85
2018-07-11T16:25:32.274Z,18.86
2018-07-11T16:28:00.936Z,18.91
2018-07-11T16:30:29.478Z,18.88
2018-07-11T16:32:57.990Z,18.96
2018-07-11T16:35:26.602Z,18.88
2018-07-11T16:37:55.152Z,18.85
2018-07-11T16:40:23.666Z,18.97
2018-07-11T16:42:52.814Z,19.15
2018-07-11T16:45:21.341Z,19.42
2018-07-11T16:47:49.925Z,19.49
2018-07-11T16:50:19.061Z,19.75
2018-07-11T16:52:47.621Z,19.71
2018-07-11T16:55:16.247Z,19.47
2018-07-11T16:57:47.254Z,19.58
2018-07-11T17:00:15.813Z,19.34
2018-07-11T17:02:45.990Z,19.32
2018-07-11T17:05:20.274Z,19.43
2018-07-11T17:07:51.961Z,19.22
2018-07-11T17:10:22.408Z,19.27
2018-07-11T17:12:55.312Z,19.42
2018-07-11T17:15:25.128Z,19.63
2018-07-11T17:17:55.694Z,19.47
2018-07-11T17:20:24.922Z,19.51
2018-07-11T17:22:57.157Z,19.55
2018-07-11T17:25:30.101Z,19.63
2018-07-11T17:28:00.838Z,19.66
2018-07-11T17:30:31.725Z,19.64
2018-07-11T17:33:00.472Z,19.71
2018-07-11T17:35:29.506Z,19.78
2018-07-11T17:37:59.099Z,19.76
2018-07-11T17:40:27.618Z,19.83
2018-07-11T17:42:56.125Z,19.95
2018-07-11T17:45:24.647Z,19.98
2018-07-11T17:50:08.435Z,19.97
2018-07-11T17:53:09.690Z,19.59
2018-07-11T17:55:52.300Z,19.08
2018-07-11T17:58:24.000Z,18.76
2018-07-11T18:01:05.063Z,18.18
2018-07-11T18:03:40.997Z,18.13
2018-07-11T18:06:18.617Z,18.10
2018-07-11T18:08:52.784Z,18.10
2018-07-11T18:11:21.947Z,18.06
2018-07-11T18:13:53.128Z,18.13
2018-07-11T18:16:46.477Z,18.27
2018-07-11T18:21:40.152Z,18.27
2018-07-11T18:24:33.180Z,18.34
2018-07-11T18:29:21.678Z,18.42
2018-07-11T18:31:59.080Z,18.38
2018-07-11T18:36:43.077Z,18.20
2018-07-11T18:39:21.673Z,17.59
2018-07-11T18:43:00.054Z,17.34
2018-07-11T18:45:44.011Z,17.20
2018-07-11T18:49:23.333Z,17.16
2018-07-11T18:52:03.043Z,17.05
2018-07-11T18:55:09.083Z,17.00
2018-07-11T19:00:01.949Z,16.93
2018-07-11T19:03:18.995Z,17.01
2018-07-11T19:05:55.597Z,17.09
2018-07-11T19:08:33.487Z,17.04
2018-07-11T19:11:08.521Z,17.06
2018-07-11T19:13:42.639Z,17.13
2018-07-11T19:16:19.357Z,17.15
2018-07-11T19:18:57.311Z,17.33
2018-07-11T19:21:35.716Z,17.36
2018-07-11T19:24:10.150Z,17.35
2018-07-11T19:26:54.315Z,17.34
2018-07-11T19:29:36.738Z,17.32
2018-07-11T19:33:11.534Z,17.29
2018-07-11T19:35:51.673Z,17.22
2018-07-11T19:38:38.869Z,17.27
2018-07-11T19:41:21.933Z,17.27
2018-07-11T19:44:14.602Z,17.28
2018-07-11T19:47:21.137Z,17.34
2018-07-11T19:49:59.352Z,17.29
2018-07-11T19:52:39.469Z,17.32
2018-07-11T19:56:20.340Z,17.28
2018-07-11T19:58:49.070Z,17.14
2018-07-11T20:01:19.919Z,17.08
2018-07-11T20:03:48.426Z,17.19
2018-07-11T20:06:16.953Z,17.10
2018-07-11T20:08:45.443Z,17.05
2018-07-11T20:11:13.985Z,16.99
2018-07-11T20:13:42.542Z,17.00
2018-07-11T20:16:11.075Z,16.96
2018-07-11T20:18:39.562Z,16.98
2018-07-11T20:21:08.021Z,16.98
2018-07-11T20:23:36.545Z,16.97
2018-07-11T20:26:05.122Z,16.91
2018-07-11T20:28:33.640Z,16.94
2018-07-11T20:31:02.074Z,16.90
2018-07-11T20:33:30.599Z,16.89
2018-07-11T20:35:59.933Z,16.83
2018-07-11T20:38:28.425Z,16.91
2018-07-11T20:40:57.045Z,16.81
2018-07-11T20:43:25.623Z,16.82
2018-07-11T20:45:54.125Z,16.83
2018-07-11T20:48:22.862Z,16.86
2018-07-11T20:50:51.348Z,16.85
2018-07-11T20:53:19.851Z,16.79
2018-07-11T20:55:48.290Z,16.83
2018-07-11T20:58:28.036Z,16.84
2018-07-11T21:01:07.775Z,16.80
2018-07-11T21:07:58.389Z,16.83
2018-07-11T21:10:38.727Z,16.86
2018-07-11T21:13:57.328Z,16.90
2018-07-11T21:16:34.511Z,16.91
2018-07-11T21:19:10.858Z,16.92
2018-07-11T21:21:40.272Z,16.94
2018-07-11T21:24:09.626Z,16.98
2018-07-11T21:26:38.600Z,17.00
2018-07-11T21:29:07.297Z,16.96
2018-07-11T21:31:35.777Z,16.93
2018-07-11T21:34:04.213Z,16.96
2018-07-11T21:36:32.634Z,17.05
2018-07-11T21:39:01.087Z,17.04
2018-07-11T21:41:29.508Z,17.06
2018-07-11T21:43:58.611Z,17.11
2018-07-11T21:46:27.161Z,17.19
2018-07-11T21:48:55.602Z,17.19
2018-07-11T21:51:24.300Z,17.26
2018-07-11T21:53:53.773Z,17.23
2018-07-11T21:56:22.253Z,17.20
2018-07-11T21:58:50.837Z,17.20
2018-07-11T22:01:19.318Z,17.17
2018-07-11T22:03:47.783Z,17.17
2018-07-11T22:06:16.258Z,17.07
2018-07-11T22:08:44.737Z,17.09
2018-07-11T22:11:13.229Z,17.03
2018-07-11T22:13:41.702Z,17.01
2018-07-11T22:16:10.521Z,17.02
2018-07-11T22:18:42.766Z,17.02
2018-07-11T22:21:10.863Z,17.01
2018-07-11T22:23:38.141Z,16.98
2018-07-11T22:26:05.393Z,16.94
2018-07-11T22:28:32.686Z,16.88
2018-07-11T22:30:59.921Z,16.86
2018-07-11T22:33:27.154Z,16.81
2018-07-11T22:35:54.454Z,16.80
2018-07-11T22:38:21.658Z,16.70
2018-07-11T22:40:48.913Z,16.69
2018-07-11T22:43:16.147Z,16.61
2018-07-11T22:45:43.407Z,16.56
2018-07-11T22:48:10.655Z,16.52
2018-07-11T22:50:37.918Z,16.49
2018-07-11T22:53:05.161Z,16.43
2018-07-11T22:55:32.433Z,16.40
2018-07-11T22:57:59.676Z,16.41
2018-07-11T23:00:26.930Z,16.44
2018-07-11T23:02:54.177Z,16.45
2018-07-11T23:05:21.444Z,16.48
2018-07-11T23:07:48.680Z,16.52
2018-07-11T23:10:15.948Z,16.56
2018-07-11T23:12:43.185Z,16.58
2018-07-11T23:15:10.445Z,16.57
2018-07-11T23:17:37.712Z,16.56
2018-07-11T23:20:04.979Z,16.56
2018-07-11T23:22:32.229Z,16.53
2018-07-11T23:24:59.477Z,16.51
2018-07-11T23:27:26.735Z,16.47
2018-07-11T23:29:54.049Z,16.50
2018-07-11T23:32:21.299Z,16.50
2018-07-11T23:34:48.570Z,16.52
2018-07-11T23:37:15.806Z,16.53
2018-07-11T23:39:43.085Z,16.48
2018-07-11T23:42:10.346Z,16.46
2018-07-11T23:44:37.662Z,16.46
2018-07-11T23:47:04.926Z,16.49
2018-07-11T23:49:32.186Z,16.49
2018-07-11T23:51:59.458Z,16.48
2018-07-11T23:54:26.710Z,16.47
2018-07-11T23:56:54.342Z,16.46
2018-07-11T23:59:21.589Z,16.42
